sensor_id;sensor_type;location;lat;lon;timestamp;pressure;altitude;pressure_sealevel;temperature;humidity
41334;BME280;27078;46.428;6.256;2023-02-28T00:00:00;96630.31;;;0.04;100.00
41334;BME280;27078;46.428;6.256;2023-02-28T00:02:25;96621.69;;;0.03;100.00
41334;BME280;27078;46.428;6.256;2023-02-28T00:04:50;96623.50;;;0.01;100.00
41334;BME280;27078;46.428;6.256;2023-02-28T00:07:18;96625.19;;;0.02;100.00
41334;BME280;27078;46.428;6.256;2023-02-28T00:09:44;96622.25;;;0.10;100.00
41334;BME280;27078;46.428;6.256;2023-02-28T00:12:09;96627.22;;;-0.05;100.00
41334;BME280;27078;46.428;6.256;2023-02-28T00:14:36;96627.88;;;0.01;100.00
41334;BME280;27078;46.428;6.256;2023-02-28T00:17:02;96621.59;;;-0.14;100.00
41334;BME280;27078;46.428;6.256;2023-02-28T00:19:27;96621.13;;;-0.04;100.00
41334;BME280;27078;46.428;6.256;2023-02-28T00:21:52;96615.09;;;-0.04;100.00
41334;BME280;27078;46.428;6.256;2023-02-28T00:24:18;96618.91;;;-0.13;100.00
41334;BME280;27078;46.428;6.256;2023-02-28T00:26:43;96619.38;;;-0.24;100.00
41334;BME280;27078;46.428;6.256;2023-02-28T00:29:09;96625.50;;;-0.25;100.00
41334;BME280;27078;46.428;6.256;2023-02-28T00:31:35;96629.50;;;-0.17;100.00
41334;BME280;27078;46.428;6.256;2023-02-28T00:34:00;96628.50;;;-0.34;100.00
41334;BME280;27078;46.428;6.256;2023-02-28T00:36:25;96633.38;;;-0.28;100.00
41334;BME280;27078;46.428;6.256;2023-02-28T00:38:51;96632.63;;;-0.30;100.00
41334;BME280;27078;46.428;6.256;2023-02-28T00:41:16;96632.75;;;-0.33;100.00
41334;BME280;27078;46.428;6.256;2023-02-28T00:43:41;96632.81;;;-0.34;100.00
41334;BME280;27078;46.428;6.256;2023-02-28T00:46:08;96632.81;;;-0.34;100.00
41334;BME280;27078;46.428;6.256;2023-02-28T00:48:33;96626.78;;;-0.35;100.00
41334;BME280;27078;46.428;6.256;2023-02-28T00:50:59;96627.56;;;-0.33;100.00
41334;BME280;27078;46.428;6.256;2023-02-28T00:53:24;96629.63;;;-0.41;100.00
41334;BME280;27078;46.428;6.256;2023-02-28T00:55:50;96625.44;;;-0.44;100.00
41334;BME280;27078;46.428;6.256;2023-02-28T00:58:15;96621.75;;;-0.38;100.00
41334;BME280;27078;46.428;6.256;2023-02-28T01:00:41;96618.78;;;-0.30;100.00
41334;BME280;27078;46.428;6.256;2023-02-28T01:03:06;96619.94;;;-0.36;100.00
41334;BME280;27078;46.428;6.256;2023-02-28T01:05:31;96622.22;;;-0.30;100.00
41334;BME280;27078;46.428;6.256;2023-02-28T01:07:56;96621.75;;;-0.38;100.00
41334;BME280;27078;46.428;6.256;2023-02-28T01:10:22;96612.66;;;-0.48;100.00
41334;BME280;27078;46.428;6.256;2023-02-28T01:12:47;96617.06;;;-0.50;100.00
41334;BME280;27078;46.428;6.256;2023-02-28T01:15:12;96616.03;;;-0.46;100.00
41334;BME280;27078;46.428;6.256;2023-02-28T01:17:38;96610.88;;;-0.48;100.00
41334;BME280;27078;46.428;6.256;2023-02-28T01:20:04;96618.72;;;-0.49;100.00
41334;BME280;27078;46.428;6.256;2023-02-28T01:22:29;96610.69;;;-0.43;100.00
41334;BME280;27078;46.428;6.256;2023-02-28T01:24:54;96618.16;;;-0.35;100.00
41334;BME280;27078;46.428;6.256;2023-02-28T01:27:20;96619.41;;;-0.44;100.00
41334;BME280;27078;46.428;6.256;2023-02-28T01:29:45;96625.38;;;-0.42;100.00
41334;BME280;27078;46.428;6.256;2023-02-28T01:32:10;96620.19;;;-0.42;100.00
41334;BME280;27078;46.428;6.256;2023-02-28T01:34:36;96619.19;;;-0.39;100.00
41334;BME280;27078;46.428;6.256;2023-02-28T01:37:01;96624.38;;;-0.39;100.00
41334;BME280;27078;46.428;6.256;2023-02-28T01:39:28;96626.47;;;-0.48;100.00
41334;BME280;27078;46.428;6.256;2023-02-28T01:41:53;96626.47;;;-0.48;100.00
41334;BME280;27078;46.428;6.256;2023-02-28T01:47:22;96621.84;;;-0.41;100.00
41334;BME280;27078;46.428;6.256;2023-02-28T01:49:50;96619.25;;;-0.41;100.00
41334;BME280;27078;46.428;6.256;2023-02-28T01:52:17;96618.38;;;-0.40;100.00
41334;BME280;27078;46.428;6.256;2023-02-28T01:54:48;96614.13;;;-0.43;100.00
41334;BME280;27078;46.428;6.256;2023-02-28T01:57:16;96619.00;;;-0.35;100.00
41334;BME280;27078;46.428;6.256;2023-02-28T01:59:47;96611.28;;;-0.36;100.00
41334;BME280;27078;46.428;6.256;2023-02-28T02:02:16;96620.41;;;-0.28;100.00
41334;BME280;27078;46.428;6.256;2023-02-28T02:05:08;96617.31;;;-0.36;100.00
41334;BME280;27078;46.428;6.256;2023-02-28T02:07:38;96609.78;;;-0.42;100.00
41334;BME280;27078;46.428;6.256;2023-02-28T02:10:17;96615.81;;;-0.42;100.00
41334;BME280;27078;46.428;6.256;2023-02-28T02:18:22;96603.81;;;-0.44;100.00
41334;BME280;27078;46.428;6.256;2023-02-28T02:34:43;96608.63;;;-0.35;100.00
41334;BME280;27078;46.428;6.256;2023-02-28T02:42:50;96602.97;;;-0.24;100.00
41334;BME280;27078;46.428;6.256;2023-02-28T02:45:25;96602.75;;;-0.19;100.00
41334;BME280;27078;46.428;6.256;2023-02-28T02:47:55;96608.72;;;-0.17;100.00
41334;BME280;27078;46.428;6.256;2023-02-28T02:50:30;96608.34;;;-0.08;100.00
41334;BME280;27078;46.428;6.256;2023-02-28T02:53:00;96602.28;;;-0.09;100.00
41334;BME280;27078;46.428;6.256;2023-02-28T02:55:27;96595.41;;;-0.10;100.00
41334;BME280;27078;46.428;6.256;2023-02-28T02:58:02;96595.41;;;-0.10;100.00
41334;BME280;27078;46.428;6.256;2023-02-28T03:00:32;96605.59;;;-0.05;100.00
41334;BME280;27078;46.428;6.256;2023-02-28T03:02:59;96601.19;;;-0.03;100.00
41334;BME280;27078;46.428;6.256;2023-02-28T03:05:50;96603.00;;;-0.05;100.00
41334;BME280;27078;46.428;6.256;2023-02-28T03:08:14;96596.13;;;-0.06;100.00
41334;BME280;27078;46.428;6.256;2023-02-28T03:10:45;96591.50;;;0.01;100.00
41334;BME280;27078;46.428;6.256;2023-02-28T03:16:41;96595.34;;;-0.08;100.00
41334;BME280;27078;46.428;6.256;2023-02-28T03:19:36;96597.09;;;-0.09;100.00
41334;BME280;27078;46.428;6.256;2023-02-28T03:25:07;96598.34;;;-0.17;100.00
41334;BME280;27078;46.428;6.256;2023-02-28T03:30:53;96592.50;;;-0.23;100.00
41334;BME280;27078;46.428;6.256;2023-02-28T03:33:54;96586.81;;;-0.31;100.00
41334;BME280;27078;46.428;6.256;2023-02-28T03:36:26;96596.16;;;-0.27;100.00
41334;BME280;27078;46.428;6.256;2023-02-28T03:39:08;96598.88;;;-0.30;100.00
41334;BME280;27078;46.428;6.256;2023-02-28T03:41:52;96588.47;;;-0.30;100.00
41334;BME280;27078;46.428;6.256;2023-02-28T03:44:42;96592.78;;;-0.29;100.00
41334;BME280;27078;46.428;6.256;2023-02-28T03:47:13;96593.63;;;-0.28;100.00
41334;BME280;27078;46.428;6.256;2023-02-28T03:49:45;96591.84;;;-0.28;100.00
41334;BME280;27078;46.428;6.256;2023-02-28T03:52:12;96594.97;;;-0.19;100.00
41334;BME280;27078;46.428;6.256;2023-02-28T03:54:48;96586.53;;;-0.25;100.00
41334;BME280;27078;46.428;6.256;2023-02-28T03:57:40;96593.63;;;-0.28;100.00
41334;BME280;27078;46.428;6.256;2023-02-28T04:00:09;96595.38;;;-0.29;100.00
41334;BME280;27078;46.428;6.256;2023-02-28T04:02:37;96593.81;;;-0.33;100.00
41334;BME280;27078;46.428;6.256;2023-02-28T04:05:03;96603.56;;;-0.38;100.00
41334;BME280;27078;46.428;6.256;2023-02-28T04:07:29;96613.44;;;-0.46;100.00
41334;BME280;27078;46.428;6.256;2023-02-28T04:09:55;96607.50;;;-0.50;100.00
41334;BME280;27078;46.428;6.256;2023-02-28T04:12:20;96613.44;;;-0.46;100.00
41334;BME280;27078;46.428;6.256;2023-02-28T04:14:48;96620.53;;;-0.51;100.00
41334;BME280;27078;46.428;6.256;2023-02-28T04:17:13;96624.38;;;-0.39;100.00
41334;BME280;27078;46.428;6.256;2023-02-28T04:19:39;96622.53;;;-0.36;100.00
41334;BME280;27078;46.428;6.256;2023-02-28T04:22:04;96621.38;;;-0.30;100.00
41334;BME280;27078;46.428;6.256;2023-02-28T04:24:29;96613.03;;;-0.16;100.00
41334;BME280;27078;46.428;6.256;2023-02-28T04:26:56;96610.28;;;-0.13;100.00
41334;BME280;27078;46.428;6.256;2023-02-28T04:29:30;96609.97;;;-0.26;100.00
41334;BME280;27078;46.428;6.256;2023-02-28T04:31:57;96611.84;;;-0.30;100.00
41334;BME280;27078;46.428;6.256;2023-02-28T04:34:23;96614.44;;;-0.30;100.00
41334;BME280;27078;46.428;6.256;2023-02-28T04:36:48;96609.44;;;-0.34;100.00
41334;BME280;27078;46.428;6.256;2023-02-28T04:39:16;96616.47;;;-0.36;100.00
41334;BME280;27078;46.428;6.256;2023-02-28T04:41:43;96603.09;;;-0.27;100.00
41334;BME280;27078;46.428;6.256;2023-02-28T04:44:09;96613.59;;;-0.30;100.00
41334;BME280;27078;46.428;6.256;2023-02-28T04:46:34;96618.09;;;-0.34;100.00
41334;BME280;27078;46.428;6.256;2023-02-28T04:49:00;96622.84;;;-0.44;100.00
41334;BME280;27078;46.428;6.256;2023-02-28T04:51:25;96619.94;;;-0.36;100.00
41334;BME280;27078;46.428;6.256;2023-02-28T04:53:50;96618.69;;;-0.27;100.00
41334;BME280;27078;46.428;6.256;2023-02-28T04:56:17;96614.97;;;-0.22;100.00
41334;BME280;27078;46.428;6.256;2023-02-28T04:58:43;96615.41;;;-0.12;100.00
41334;BME280;27078;46.428;6.256;2023-02-28T05:01:28;96622.38;;;-0.12;100.00
41334;BME280;27078;46.428;6.256;2023-02-28T05:03:56;96621.31;;;-0.08;100.00
41334;BME280;27078;46.428;6.256;2023-02-28T05:06:27;96618.38;;;-0.01;100.00
41334;BME280;27078;46.428;6.256;2023-02-28T05:08:53;96618.94;;;0.06;100.00
41334;BME280;27078;46.428;6.256;2023-02-28T05:11:25;96615.88;;;-0.02;100.00
41334;BME280;27078;46.428;6.256;2023-02-28T05:13:51;96621.84;;;0.00;100.00
41334;BME280;27078;46.428;6.256;2023-02-28T05:16:17;96626.38;;;-0.05;100.00
41334;BME280;27078;46.428;6.256;2023-02-28T05:18:43;96634.69;;;-0.17;100.00
41334;BME280;27078;46.428;6.256;2023-02-28T05:21:32;96637.75;;;-0.28;100.00
41334;BME280;27078;46.428;6.256;2023-02-28T05:24:00;96628.53;;;-0.35;100.00
41334;BME280;27078;46.428;6.256;2023-02-28T05:26:26;96629.06;;;-0.27;100.00
41334;BME280;27078;46.428;6.256;2023-02-28T05:28:53;96628.97;;;-0.05;100.00
41334;BME280;27078;46.428;6.256;2023-02-28T05:31:18;96632.28;;;-0.02;100.00
41334;BME280;27078;46.428;6.256;2023-02-28T05:33:44;96630.59;;;-0.03;100.00
41334;BME280;27078;46.428;6.256;2023-02-28T05:36:09;96635.66;;;0.01;100.00
41334;BME280;27078;46.428;6.256;2023-02-28T05:38:35;96628.34;;;-0.10;100.00
41334;BME280;27078;46.428;6.256;2023-02-28T05:41:04;96636.78;;;-0.26;100.00
41334;BME280;27078;46.428;6.256;2023-02-28T05:43:29;96627.63;;;-0.34;100.00
41334;BME280;27078;46.428;6.256;2023-02-28T05:45:54;96631.41;;;-0.42;100.00
41334;BME280;27078;46.428;6.256;2023-02-28T05:48:20;96631.72;;;-0.49;100.00
41334;BME280;27078;46.428;6.256;2023-02-28T05:50:45;96640.84;;;-0.41;100.00
41334;BME280;27078;46.428;6.256;2023-02-28T05:53:11;96632.50;;;-0.47;100.00
41334;BME280;27078;46.428;6.256;2023-02-28T05:55:36;96637.03;;;-0.52;100.00
41334;BME280;27078;46.428;6.256;2023-02-28T05:58:02;96645.72;;;-0.53;100.00
41334;BME280;27078;46.428;6.256;2023-02-28T06:00:28;96639.97;;;-0.19;100.00
41334;BME280;27078;46.428;6.256;2023-02-28T06:02:53;96641.44;;;-0.13;100.00
41334;BME280;27078;46.428;6.256;2023-02-28T06:05:21;96641.59;;;-0.16;100.00
41334;BME280;27078;46.428;6.256;2023-02-28T06:07:47;96646.19;;;-0.23;100.00
41334;BME280;27078;46.428;6.256;2023-02-28T06:10:13;96639.81;;;-0.16;100.00
41334;BME280;27078;46.428;6.256;2023-02-28T06:12:39;96645.84;;;-0.15;100.00
41334;BME280;27078;46.428;6.256;2023-02-28T06:15:07;96648.84;;;-0.25;100.00
41334;BME280;27078;46.428;6.256;2023-02-28T06:17:32;96654.00;;;-0.23;100.00
41334;BME280;27078;46.428;6.256;2023-02-28T06:19:58;96659.25;;;-0.25;100.00
41334;BME280;27078;46.428;6.256;2023-02-28T06:22:23;96664.69;;;-0.31;100.00
41334;BME280;27078;46.428;6.256;2023-02-28T06:24:48;96661.31;;;-0.33;100.00
41334;BME280;27078;46.428;6.256;2023-02-28T06:27:14;96663.66;;;-0.27;100.00
41334;BME280;27078;46.428;6.256;2023-02-28T06:29:39;96662.16;;;-0.32;100.00
41334;BME280;27078;46.428;6.256;2023-02-28T06:32:05;96655.88;;;-0.27;100.00
41334;BME280;27078;46.428;6.256;2023-02-28T06:34:30;96662.47;;;-0.19;100.00
41334;BME280;27078;46.428;6.256;2023-02-28T06:36:56;96672.75;;;-0.16;100.00
41334;BME280;27078;46.428;6.256;2023-02-28T06:39:21;96675.97;;;-0.11;100.00
41334;BME280;27078;46.428;6.256;2023-02-28T06:41:46;96680.78;;;-0.02;100.00
41334;BME280;27078;46.428;6.256;2023-02-28T06:44:17;96682.47;;;-0.01;100.00
41334;BME280;27078;46.428;6.256;2023-02-28T06:46:43;96682.47;;;0.19;100.00
41334;BME280;27078;46.428;6.256;2023-02-28T06:49:09;96682.03;;;0.29;100.00
41334;BME280;27078;46.428;6.256;2023-02-28T06:51:37;96678.72;;;0.25;100.00
41334;BME280;27078;46.428;6.256;2023-02-28T06:54:03;96679.38;;;0.30;100.00
41334;BME280;27078;46.428;6.256;2023-02-28T06:56:28;96675.22;;;0.26;100.00
41334;BME280;27078;46.428;6.256;2023-02-28T06:58:54;96670.44;;;0.36;100.00
41334;BME280;27078;46.428;6.256;2023-02-28T07:01:19;96674.44;;;0.45;100.00
41334;BME280;27078;46.428;6.256;2023-02-28T07:03:45;96683.13;;;0.44;100.00
41334;BME280;27078;46.428;6.256;2023-02-28T07:06:10;96676.16;;;0.44;100.00
41334;BME280;27078;46.428;6.256;2023-02-28T07:08:36;96679.91;;;0.57;100.00
41334;BME280;27078;46.428;6.256;2023-02-28T07:11:02;96674.41;;;0.82;100.00
41334;BME280;27078;46.428;6.256;2023-02-28T07:13:28;96679.91;;;0.95;100.00
41334;BME280;27078;46.428;6.256;2023-02-28T07:15:59;96687.06;;;0.90;100.00
41334;BME280;27078;46.428;6.256;2023-02-28T07:18:25;96688.06;;;0.88;100.00
41334;BME280;27078;46.428;6.256;2023-02-28T07:20:51;96694.53;;;0.79;100.00
41334;BME280;27078;46.428;6.256;2023-02-28T07:23:17;96695.91;;;0.67;100.00
41334;BME280;27078;46.428;6.256;2023-02-28T07:25:42;96694.16;;;0.68;100.00
41334;BME280;27078;46.428;6.256;2023-02-28T07:28:08;96699.19;;;0.72;100.00
41334;BME280;27078;46.428;6.256;2023-02-28T07:30:33;96694.47;;;0.80;100.00
41334;BME280;27078;46.428;6.256;2023-02-28T07:32:59;96693.31;;;0.86;100.00
41334;BME280;27078;46.428;6.256;2023-02-28T07:35:24;96701.00;;;0.89;100.00
41334;BME280;27078;46.428;6.256;2023-02-28T07:37:49;96699.72;;;0.98;100.00
41334;BME280;27078;46.428;6.256;2023-02-28T07:40:15;96696.06;;;1.02;100.00
41334;BME280;27078;46.428;6.256;2023-02-28T07:42:43;96704.56;;;1.06;100.00
41334;BME280;27078;46.428;6.256;2023-02-28T07:45:09;96708.16;;;1.03;100.00
41334;BME280;27078;46.428;6.256;2023-02-28T07:47:40;96711.47;;;1.07;100.00
41334;BME280;27078;46.428;6.256;2023-02-28T07:50:07;96711.94;;;1.15;100.00
41334;BME280;27078;46.428;6.256;2023-02-28T07:52:33;96711.66;;;1.21;100.00
41334;BME280;27078;46.428;6.256;2023-02-28T07:54:58;96710.50;;;1.27;100.00
41334;BME280;27078;46.428;6.256;2023-02-28T07:57:24;96714.88;;;1.26;100.00
41334;BME280;27078;46.428;6.256;2023-02-28T07:59:49;96716.72;;;1.24;100.00
41334;BME280;27078;46.428;6.256;2023-02-28T08:02:15;96713.50;;;1.19;100.00
41334;BME280;27078;46.428;6.256;2023-02-28T08:04:41;96715.44;;;1.14;99.74
41334;BME280;27078;46.428;6.256;2023-02-28T08:07:07;96714.13;;;1.05;100.00
41334;BME280;27078;46.428;6.256;2023-02-28T08:09:33;96701.81;;;1.09;100.00
41334;BME280;27078;46.428;6.256;2023-02-28T08:11:59;96699.06;;;1.12;100.00
41334;BME280;27078;46.428;6.256;2023-02-28T08:14:24;96694.50;;;1.17;91.17
41334;BME280;27078;46.428;6.256;2023-02-28T08:16:49;96695.41;;;1.16;90.93
41334;BME280;27078;46.428;6.256;2023-02-28T08:19:15;96701.03;;;1.26;93.62
41334;BME280;27078;46.428;6.256;2023-02-28T08:21:40;96698.97;;;1.32;92.60
41334;BME280;27078;46.428;6.256;2023-02-28T08:24:06;96698.22;;;1.48;91.97
41334;BME280;27078;46.428;6.256;2023-02-28T08:26:32;96693.19;;;1.62;93.11
41334;BME280;27078;46.428;6.256;2023-02-28T08:28:57;96696.72;;;1.78;89.40
41334;BME280;27078;46.428;6.256;2023-02-28T08:31:23;96698.72;;;1.73;87.98
41334;BME280;27078;46.428;6.256;2023-02-28T08:33:48;96697.03;;;1.72;89.73
41334;BME280;27078;46.428;6.256;2023-02-28T08:36:16;96702.59;;;1.82;91.51
41334;BME280;27078;46.428;6.256;2023-02-28T08:38:41;96708.91;;;1.95;87.56
41334;BME280;27078;46.428;6.256;2023-02-28T08:41:09;96706.59;;;2.07;87.89
41334;BME280;27078;46.428;6.256;2023-02-28T08:43:35;96703.38;;;2.19;90.73
41334;BME280;27078;46.428;6.256;2023-02-28T08:46:02;96702.66;;;2.33;93.67
41334;BME280;27078;46.428;6.256;2023-02-28T08:48:30;96706.31;;;2.46;93.42
41334;BME280;27078;46.428;6.256;2023-02-28T08:51:09;96700.59;;;2.39;83.57
41334;BME280;27078;46.428;6.256;2023-02-28T08:53:36;96696.66;;;2.48;87.22
41334;BME280;27078;46.428;6.256;2023-02-28T08:56:07;96701.22;;;2.60;87.15
41334;BME280;27078;46.428;6.256;2023-02-28T08:58:33;96708.81;;;2.81;87.90
41334;BME280;27078;46.428;6.256;2023-02-28T09:00:59;96707.28;;;2.77;83.50
41334;BME280;27078;46.428;6.256;2023-02-28T09:03:25;96713.88;;;2.84;83.17
41334;BME280;27078;46.428;6.256;2023-02-28T09:05:57;96713.03;;;2.83;85.54
41334;BME280;27078;46.428;6.256;2023-02-28T09:08:24;96718.19;;;3.01;85.89
41334;BME280;27078;46.428;6.256;2023-02-28T09:10:49;96720.31;;;3.26;82.31
41334;BME280;27078;46.428;6.256;2023-02-28T09:13:16;96721.13;;;3.42;78.36
41334;BME280;27078;46.428;6.256;2023-02-28T09:15:42;96719.25;;;3.60;80.26
41334;BME280;27078;46.428;6.256;2023-02-28T09:18:07;96711.50;;;3.75;81.24
41334;BME280;27078;46.428;6.256;2023-02-28T09:20:32;96703.44;;;4.08;79.14
41334;BME280;27078;46.428;6.256;2023-02-28T09:22:58;96703.31;;;4.25;72.74
41334;BME280;27078;46.428;6.256;2023-02-28T09:25:23;96700.03;;;4.51;70.55
41334;BME280;27078;46.428;6.256;2023-02-28T09:27:48;96703.59;;;4.49;69.71
41334;BME280;27078;46.428;6.256;2023-02-28T09:30:14;96707.44;;;4.58;65.28
41334;BME280;27078;46.428;6.256;2023-02-28T09:32:40;96706.03;;;4.81;66.20
41334;BME280;27078;46.428;6.256;2023-02-28T09:35:05;96700.97;;;4.93;65.30
41334;BME280;27078;46.428;6.256;2023-02-28T09:37:31;96705.56;;;4.89;66.23
41334;BME280;27078;46.428;6.256;2023-02-28T09:39:57;96711.34;;;4.94;66.58
41334;BME280;27078;46.428;6.256;2023-02-28T09:42:30;96708.28;;;4.87;65.65
41334;BME280;27078;46.428;6.256;2023-02-28T09:44:56;96712.28;;;4.93;65.06
41334;BME280;27078;46.428;6.256;2023-02-28T09:47:31;96710.66;;;5.19;64.35
41334;BME280;27078;46.428;6.256;2023-02-28T09:50:11;96717.69;;;5.19;61.15
41334;BME280;27078;46.428;6.256;2023-02-28T09:52:41;96718.13;;;5.25;64.84
41334;BME280;27078;46.428;6.256;2023-02-28T09:55:30;96720.25;;;5.33;63.27
41334;BME280;27078;46.428;6.256;2023-02-28T09:57:59;96707.38;;;5.57;61.10
41334;BME280;27078;46.428;6.256;2023-02-28T10:00:39;96712.78;;;5.81;59.84
41334;BME280;27078;46.428;6.256;2023-02-28T10:05:53;96726.69;;;5.69;57.92
41334;BME280;27078;46.428;6.256;2023-02-28T10:08:31;96723.44;;;5.38;57.31
41334;BME280;27078;46.428;6.256;2023-02-28T10:11:01;96725.09;;;5.39;61.00
41334;BME280;27078;46.428;6.256;2023-02-28T10:21:56;96728.16;;;5.46;60.19
41334;BME280;27078;46.428;6.256;2023-02-28T10:24:50;96729.78;;;5.48;61.34
41334;BME280;27078;46.428;6.256;2023-02-28T10:27:22;96739.16;;;5.38;64.99
41334;BME280;27078;46.428;6.256;2023-02-28T10:30:00;96745.22;;;5.39;64.41
41334;BME280;27078;46.428;6.256;2023-02-28T10:32:29;96736.31;;;5.41;62.92
41334;BME280;27078;46.428;6.256;2023-02-28T10:35:01;96740.28;;;5.34;63.81
41334;BME280;27078;46.428;6.256;2023-02-28T10:37:32;96741.59;;;5.27;63.71
41334;BME280;27078;46.428;6.256;2023-02-28T10:40:04;96739.31;;;5.35;65.67
41334;BME280;27078;46.428;6.256;2023-02-28T10:42:32;96739.31;;;5.35;63.75
41334;BME280;27078;46.428;6.256;2023-02-28T10:45:13;96739.31;;;5.35;64.55
41334;BME280;27078;46.428;6.256;2023-02-28T10:47:59;96739.06;;;5.40;64.21
41334;BME280;27078;46.428;6.256;2023-02-28T10:52:54;96741.94;;;5.77;64.35
41334;BME280;27078;46.428;6.256;2023-02-28T10:55:22;96744.59;;;5.89;64.40
41334;BME280;27078;46.428;6.256;2023-02-28T10:57:49;96730.84;;;5.86;62.90
41334;BME280;27078;46.428;6.256;2023-02-28T11:00:33;96741.22;;;5.87;62.31
41334;BME280;27078;46.428;6.256;2023-02-28T11:02:59;96729.75;;;6.03;61.46
41334;BME280;27078;46.428;6.256;2023-02-28T11:05:35;96728.56;;;5.94;60.56
41334;BME280;27078;46.428;6.256;2023-02-28T11:08:14;96731.88;;;6.10;61.37
41334;BME280;27078;46.428;6.256;2023-02-28T11:10:46;96730.44;;;6.32;62.55
41334;BME280;27078;46.428;6.256;2023-02-28T11:13:20;96721.75;;;6.57;62.68
41334;BME280;27078;46.428;6.256;2023-02-28T11:15:55;96721.75;;;6.70;58.35
41334;BME280;27078;46.428;6.256;2023-02-28T11:18:38;96717.88;;;6.88;59.04
41334;BME280;27078;46.428;6.256;2023-02-28T11:21:18;96711.63;;;7.02;55.88
41334;BME280;27078;46.428;6.256;2023-02-28T11:23:48;96719.19;;;7.07;56.71
41334;BME280;27078;46.428;6.256;2023-02-28T11:26:14;96713.31;;;7.16;56.31
41334;BME280;27078;46.428;6.256;2023-02-28T11:28:42;96705.16;;;7.32;58.06
41334;BME280;27078;46.428;6.256;2023-02-28T11:33:44;96698.91;;;7.70;55.59
41334;BME280;27078;46.428;6.256;2023-02-28T11:36:19;96698.38;;;7.53;57.58
41334;BME280;27078;46.428;6.256;2023-02-28T11:38:47;96700.03;;;7.54;55.29
41334;BME280;27078;46.428;6.256;2023-02-28T11:41:35;96702.78;;;7.53;53.72
41334;BME280;27078;46.428;6.256;2023-02-28T11:44:22;96692.94;;;7.44;59.76
41334;BME280;27078;46.428;6.256;2023-02-28T11:47:04;96705.28;;;7.54;57.22
41334;BME280;27078;46.428;6.256;2023-02-28T11:50:03;96706.59;;;7.73;55.79
41334;BME280;27078;46.428;6.256;2023-02-28T11:52:55;96703.13;;;8.08;56.17
41334;BME280;27078;46.428;6.256;2023-02-28T11:55:37;96701.50;;;8.29;55.14
41334;BME280;27078;46.428;6.256;2023-02-28T12:11:19;96691.00;;;8.29;53.35
41334;BME280;27078;46.428;6.256;2023-02-28T12:27:19;96671.66;;;8.42;53.46
41334;BME280;27078;46.428;6.256;2023-02-28T12:29:50;96678.81;;;8.28;54.00
41334;BME280;27078;46.428;6.256;2023-02-28T12:32:38;96680.53;;;8.63;56.54
41334;BME280;27078;46.428;6.256;2023-02-28T12:37:46;96675.56;;;8.83;52.60
41334;BME280;27078;46.428;6.256;2023-02-28T12:40:22;96673.63;;;8.85;54.83
41334;BME280;27078;46.428;6.256;2023-02-28T12:42:51;96674.81;;;8.69;54.31
41334;BME280;27078;46.428;6.256;2023-02-28T12:48:31;96664.84;;;8.50;52.70
41334;BME280;27078;46.428;6.256;2023-02-28T12:51:03;96669.06;;;8.87;54.02
41334;BME280;27078;46.428;6.256;2023-02-28T12:56:33;96671.47;;;8.79;52.19
41334;BME280;27078;46.428;6.256;2023-02-28T12:59:10;96665.22;;;8.80;54.06
41334;BME280;27078;46.428;6.256;2023-02-28T13:02:17;96665.72;;;8.85;52.94
41334;BME280;27078;46.428;6.256;2023-02-28T13:08:36;96654.38;;;9.50;53.55
41334;BME280;27078;46.428;6.256;2023-02-28T13:11:07;96654.91;;;9.22;52.22
41334;BME280;27078;46.428;6.256;2023-02-28T13:13:33;96653.38;;;8.96;52.53
41334;BME280;27078;46.428;6.256;2023-02-28T13:16:09;96655.66;;;8.90;54.86
41334;BME280;27078;46.428;6.256;2023-02-28T13:18:38;96651.09;;;8.69;53.54
41334;BME280;27078;46.428;6.256;2023-02-28T13:21:09;96648.97;;;8.74;53.60
41334;BME280;27078;46.428;6.256;2023-02-28T13:37:35;96666.03;;;7.40;59.10
41334;BME280;27078;46.428;6.256;2023-02-28T13:40:33;96664.03;;;7.07;59.46
41334;BME280;27078;46.428;6.256;2023-02-28T13:43:05;96661.16;;;6.86;59.10
41334;BME280;27078;46.428;6.256;2023-02-28T13:45:32;96668.00;;;6.76;59.42
41334;BME280;27078;46.428;6.256;2023-02-28T13:48:24;96670.09;;;6.70;62.33
41334;BME280;27078;46.428;6.256;2023-02-28T13:50:52;96662.41;;;6.93;59.56
41334;BME280;27078;46.428;6.256;2023-02-28T13:53:37;96666.13;;;7.39;59.55
41334;BME280;27078;46.428;6.256;2023-02-28T13:56:18;96663.56;;;7.74;58.46
41334;BME280;27078;46.428;6.256;2023-02-28T13:58:59;96663.09;;;8.15;55.57
41334;BME280;27078;46.428;6.256;2023-02-28T14:01:57;96651.34;;;8.55;57.04
41334;BME280;27078;46.428;6.256;2023-02-28T14:07:09;96663.09;;;7.80;54.74
41334;BME280;27078;46.428;6.256;2023-02-28T14:09:46;96666.09;;;8.11;54.49
41334;BME280;27078;46.428;6.256;2023-02-28T14:15:43;96652.69;;;8.25;54.04
41334;BME280;27078;46.428;6.256;2023-02-28T14:18:22;96654.41;;;8.26;55.54
41334;BME280;27078;46.428;6.256;2023-02-28T14:20:55;96663.84;;;8.40;55.32
41334;BME280;27078;46.428;6.256;2023-02-28T14:31:54;96657.47;;;8.09;55.25
41334;BME280;27078;46.428;6.256;2023-02-28T14:37:18;96647.34;;;8.27;56.61
41334;BME280;27078;46.428;6.256;2023-02-28T14:39:46;96647.03;;;8.43;53.75
41334;BME280;27078;46.428;6.256;2023-02-28T14:44:58;96642.50;;;8.79;54.21
41334;BME280;27078;46.428;6.256;2023-02-28T14:47:31;96645.38;;;8.75;53.87
41334;BME280;27078;46.428;6.256;2023-02-28T14:49:58;96647.75;;;8.90;53.75
41334;BME280;27078;46.428;6.256;2023-02-28T14:52:27;96644.88;;;8.82;54.13
41334;BME280;27078;46.428;6.256;2023-02-28T14:54:59;96644.53;;;8.75;55.13
41334;BME280;27078;46.428;6.256;2023-02-28T14:57:28;96654.47;;;8.71;54.92
41334;BME280;27078;46.428;6.256;2023-02-28T15:02:42;96650.13;;;8.59;55.08
41334;BME280;27078;46.428;6.256;2023-02-28T15:07:47;96647.50;;;8.59;55.54
41334;BME280;27078;46.428;6.256;2023-02-28T15:10:17;96641.06;;;8.41;57.03
41334;BME280;27078;46.428;6.256;2023-02-28T15:12:59;96651.44;;;7.95;54.63
41334;BME280;27078;46.428;6.256;2023-02-28T15:20:55;96650.94;;;7.79;56.46
41334;BME280;27078;46.428;6.256;2023-02-28T15:23:21;96648.31;;;7.79;58.56
41334;BME280;27078;46.428;6.256;2023-02-28T15:25:48;96650.81;;;7.57;56.94
41334;BME280;27078;46.428;6.256;2023-02-28T15:28:19;96653.50;;;7.20;57.41
41334;BME280;27078;46.428;6.256;2023-02-28T15:31:00;96656.88;;;7.09;58.10